Gordon, Nebraska
Current Conditions -  °F | °C
As of 3:52 PM on Thursday 20 Nov 2014 (Local Time) from KIEN Reporting Station
Clear Clear  
Wind Chill: 37°   Ceiling: Unl
Heat Index: 37°   Visibility: 10mi
Dew Point: 24°   Wind: 0mph
Humidity: 59%   Direction: NA
Pressure: 29.92"   Gusts: NA
Location:  42.8°N, 102.2°W
Report Text: KIEN 202252Z AUTO 00000KT 10SM CLR 03/M04 A2992 RMK AO2 SLP180 T00281044
Loading
Personal Weather Stations






























Interactive Weather Map New forecast layout! Learn more

10-Day Weather Forecast

Advertisements
Track Severe Weather on mobile